sensor_id;sensor_type;location;lat;lon;timestamp;P1;durP1;ratioP1;P2;durP2;ratioP2
27833;SDS011;15200;50.570;7.244;2023-07-29T00:01:25;6.08;;;2.70;;
27833;SDS011;15200;50.570;7.244;2023-07-29T00:03:52;9.18;;;2.70;;
27833;SDS011;15200;50.570;7.244;2023-07-29T00:06:20;6.95;;;2.98;;
27833;SDS011;15200;50.570;7.244;2023-07-29T00:08:47;9.10;;;2.92;;
27833;SDS011;15200;50.570;7.244;2023-07-29T00:11:14;9.20;;;2.70;;
27833;SDS011;15200;50.570;7.244;2023-07-29T00:13:42;6.72;;;2.30;;
27833;SDS011;15200;50.570;7.244;2023-07-29T00:16:09;6.90;;;2.27;;
27833;SDS011;15200;50.570;7.244;2023-07-29T00:18:36;6.85;;;2.90;;
27833;SDS011;15200;50.570;7.244;2023-07-29T00:21:04;3.00;;;2.08;;
27833;SDS011;15200;50.570;7.244;2023-07-29T00:23:32;3.42;;;2.02;;
27833;SDS011;15200;50.570;7.244;2023-07-29T00:25:59;5.45;;;2.10;;
27833;SDS011;15200;50.570;7.244;2023-07-29T00:28:26;5.72;;;1.07;;
27833;SDS011;15200;50.570;7.244;2023-07-29T00:30:54;2.60;;;1.27;;
27833;SDS011;15200;50.570;7.244;2023-07-29T00:33:22;2.20;;;1.20;;
27833;SDS011;15200;50.570;7.244;2023-07-29T00:35:49;1.67;;;0.93;;
27833;SDS011;15200;50.570;7.244;2023-07-29T00:38:16;4.55;;;1.70;;
27833;SDS011;15200;50.570;7.244;2023-07-29T00:40:44;3.75;;;1.90;;
27833;SDS011;15200;50.570;7.244;2023-07-29T00:43:11;3.27;;;1.47;;
27833;SDS011;15200;50.570;7.244;2023-07-29T00:45:38;4.15;;;1.30;;
27833;SDS011;15200;50.570;7.244;2023-07-29T00:48:06;3.27;;;1.20;;
27833;SDS011;15200;50.570;7.244;2023-07-29T00:50:33;5.30;;;1.30;;
27833;SDS011;15200;50.570;7.244;2023-07-29T00:53:01;1.10;;;1.00;;
27833;SDS011;15200;50.570;7.244;2023-07-29T00:55:28;5.97;;;1.12;;
27833;SDS011;15200;50.570;7.244;2023-07-29T00:57:55;2.77;;;0.80;;
27833;SDS011;15200;50.570;7.244;2023-07-29T01:00:23;6.12;;;1.55;;
27833;SDS011;15200;50.570;7.244;2023-07-29T01:02:52;1.05;;;0.95;;
27833;SDS011;15200;50.570;7.244;2023-07-29T01:05:21;4.78;;;1.32;;
27833;SDS011;15200;50.570;7.244;2023-07-29T01:07:56;2.30;;;1.25;;
27833;SDS011;15200;50.570;7.244;2023-07-29T01:10:31;5.17;;;1.25;;
27833;SDS011;15200;50.570;7.244;2023-07-29T01:13:16;2.70;;;0.90;;
27833;SDS011;15200;50.570;7.244;2023-07-29T01:15:43;0.80;;;0.80;;
27833;SDS011;15200;50.570;7.244;2023-07-29T01:18:14;5.03;;;0.98;;
27833;SDS011;15200;50.570;7.244;2023-07-29T01:20:40;3.77;;;0.85;;
27833;SDS011;15200;50.570;7.244;2023-07-29T01:23:09;2.90;;;1.15;;
27833;SDS011;15200;50.570;7.244;2023-07-29T01:25:36;3.50;;;1.22;;
27833;SDS011;15200;50.570;7.244;2023-07-29T01:28:03;5.08;;;1.15;;
27833;SDS011;15200;50.570;7.244;2023-07-29T01:30:33;5.62;;;1.30;;
27833;SDS011;15200;50.570;7.244;2023-07-29T01:33:09;4.70;;;1.00;;
27833;SDS011;15200;50.570;7.244;2023-07-29T01:35:32;3.20;;;0.80;;
27833;SDS011;15200;50.570;7.244;2023-07-29T01:38:05;2.17;;;0.90;;
27833;SDS011;15200;50.570;7.244;2023-07-29T01:40:32;2.70;;;0.90;;
27833;SDS011;15200;50.570;7.244;2023-07-29T01:43:00;4.83;;;1.02;;
27833;SDS011;15200;50.570;7.244;2023-07-29T01:45:28;5.67;;;1.12;;
27833;SDS011;15200;50.570;7.244;2023-07-29T01:47:57;5.00;;;0.90;;
27833;SDS011;15200;50.570;7.244;2023-07-29T01:50:24;2.65;;;1.00;;
27833;SDS011;15200;50.570;7.244;2023-07-29T01:52:52;3.85;;;1.12;;
27833;SDS011;15200;50.570;7.244;2023-07-29T01:55:19;4.15;;;0.93;;
27833;SDS011;15200;50.570;7.244;2023-07-29T01:57:47;5.67;;;1.10;;
27833;SDS011;15200;50.570;7.244;2023-07-29T02:00:15;3.83;;;0.90;;
27833;SDS011;15200;50.570;7.244;2023-07-29T02:02:42;4.15;;;1.12;;
27833;SDS011;15200;50.570;7.244;2023-07-29T02:05:10;6.22;;;1.07;;
27833;SDS011;15200;50.570;7.244;2023-07-29T02:07:37;2.22;;;0.90;;
27833;SDS011;15200;50.570;7.244;2023-07-29T02:10:04;8.03;;;1.30;;
27833;SDS011;15200;50.570;7.244;2023-07-29T02:12:32;5.30;;;1.30;;
27833;SDS011;15200;50.570;7.244;2023-07-29T02:14:59;1.40;;;0.78;;
27833;SDS011;15200;50.570;7.244;2023-07-29T02:17:26;5.58;;;1.72;;
27833;SDS011;15200;50.570;7.244;2023-07-29T02:19:54;6.75;;;1.35;;
27833;SDS011;15200;50.570;7.244;2023-07-29T02:22:21;4.70;;;1.27;;
27833;SDS011;15200;50.570;7.244;2023-07-29T02:24:48;9.48;;;1.50;;
27833;SDS011;15200;50.570;7.244;2023-07-29T02:27:16;2.25;;;1.80;;
27833;SDS011;15200;50.570;7.244;2023-07-29T02:29:43;6.40;;;1.95;;
27833;SDS011;15200;50.570;7.244;2023-07-29T02:32:10;3.08;;;1.65;;
27833;SDS011;15200;50.570;7.244;2023-07-29T02:34:38;4.08;;;1.75;;
27833;SDS011;15200;50.570;7.244;2023-07-29T02:37:05;4.90;;;2.75;;
27833;SDS011;15200;50.570;7.244;2023-07-29T02:39:32;7.42;;;2.62;;
27833;SDS011;15200;50.570;7.244;2023-07-29T02:42:00;4.78;;;2.83;;
27833;SDS011;15200;50.570;7.244;2023-07-29T02:44:27;7.97;;;3.85;;
27833;SDS011;15200;50.570;7.244;2023-07-29T02:46:54;6.92;;;3.87;;
27833;SDS011;15200;50.570;7.244;2023-07-29T02:49:22;6.83;;;3.58;;
27833;SDS011;15200;50.570;7.244;2023-07-29T02:51:50;4.03;;;3.35;;
27833;SDS011;15200;50.570;7.244;2023-07-29T02:54:17;3.85;;;2.47;;
27833;SDS011;15200;50.570;7.244;2023-07-29T02:56:44;5.05;;;2.25;;
27833;SDS011;15200;50.570;7.244;2023-07-29T02:59:12;4.00;;;2.50;;
27833;SDS011;15200;50.570;7.244;2023-07-29T03:01:39;4.53;;;2.00;;
27833;SDS011;15200;50.570;7.244;2023-07-29T03:04:06;4.45;;;1.87;;
27833;SDS011;15200;50.570;7.244;2023-07-29T03:06:34;6.58;;;1.80;;
27833;SDS011;15200;50.570;7.244;2023-07-29T03:09:01;2.52;;;1.95;;
27833;SDS011;15200;50.570;7.244;2023-07-29T03:11:29;5.08;;;1.70;;
27833;SDS011;15200;50.570;7.244;2023-07-29T03:13:57;1.35;;;1.20;;
27833;SDS011;15200;50.570;7.244;2023-07-29T03:16:24;2.58;;;1.72;;
27833;SDS011;15200;50.570;7.244;2023-07-29T03:18:51;5.15;;;1.75;;
27833;SDS011;15200;50.570;7.244;2023-07-29T03:21:19;3.83;;;1.50;;
27833;SDS011;15200;50.570;7.244;2023-07-29T03:23:46;2.42;;;1.37;;
27833;SDS011;15200;50.570;7.244;2023-07-29T03:26:13;2.85;;;1.32;;
27833;SDS011;15200;50.570;7.244;2023-07-29T03:28:41;2.25;;;1.50;;
27833;SDS011;15200;50.570;7.244;2023-07-29T03:31:09;3.67;;;1.20;;
27833;SDS011;15200;50.570;7.244;2023-07-29T03:33:37;2.72;;;1.30;;
27833;SDS011;15200;50.570;7.244;2023-07-29T03:36:04;1.52;;;1.07;;
27833;SDS011;15200;50.570;7.244;2023-07-29T03:38:32;9.18;;;1.32;;
27833;SDS011;15200;50.570;7.244;2023-07-29T03:41:03;4.12;;;1.40;;
27833;SDS011;15200;50.570;7.244;2023-07-29T03:43:31;5.22;;;1.40;;
27833;SDS011;15200;50.570;7.244;2023-07-29T03:45:58;4.22;;;1.40;;
27833;SDS011;15200;50.570;7.244;2023-07-29T03:48:25;3.72;;;1.25;;
27833;SDS011;15200;50.570;7.244;2023-07-29T03:50:53;4.03;;;1.37;;
27833;SDS011;15200;50.570;7.244;2023-07-29T03:53:20;2.80;;;1.37;;
27833;SDS011;15200;50.570;7.244;2023-07-29T03:55:48;9.38;;;1.27;;
27833;SDS011;15200;50.570;7.244;2023-07-29T03:58:16;3.58;;;1.45;;
27833;SDS011;15200;50.570;7.244;2023-07-29T04:00:43;2.20;;;1.40;;
27833;SDS011;15200;50.570;7.244;2023-07-29T04:03:11;12.30;;;2.20;;
27833;SDS011;15200;50.570;7.244;2023-07-29T04:05:38;3.22;;;1.70;;
27833;SDS011;15200;50.570;7.244;2023-07-29T04:08:05;4.65;;;1.75;;
27833;SDS011;15200;50.570;7.244;2023-07-29T04:10:32;6.37;;;1.72;;
27833;SDS011;15200;50.570;7.244;2023-07-29T04:13:01;3.12;;;1.22;;
27833;SDS011;15200;50.570;7.244;2023-07-29T04:15:28;4.58;;;1.47;;
27833;SDS011;15200;50.570;7.244;2023-07-29T04:17:56;4.78;;;1.77;;
27833;SDS011;15200;50.570;7.244;2023-07-29T04:20:23;5.37;;;1.65;;
27833;SDS011;15200;50.570;7.244;2023-07-29T04:22:51;3.08;;;1.40;;
27833;SDS011;15200;50.570;7.244;2023-07-29T04:25:18;5.67;;;1.65;;
27833;SDS011;15200;50.570;7.244;2023-07-29T04:27:45;3.45;;;1.22;;
27833;SDS011;15200;50.570;7.244;2023-07-29T04:30:13;5.05;;;1.45;;
27833;SDS011;15200;50.570;7.244;2023-07-29T04:32:40;2.12;;;1.30;;
27833;SDS011;15200;50.570;7.244;2023-07-29T04:35:08;2.35;;;1.52;;
27833;SDS011;15200;50.570;7.244;2023-07-29T04:37:36;3.02;;;1.40;;
27833;SDS011;15200;50.570;7.244;2023-07-29T04:40:03;3.35;;;2.08;;
27833;SDS011;15200;50.570;7.244;2023-07-29T04:42:31;7.03;;;2.00;;
27833;SDS011;15200;50.570;7.244;2023-07-29T04:44:58;4.58;;;1.60;;
27833;SDS011;15200;50.570;7.244;2023-07-29T04:47:25;1.25;;;1.15;;
27833;SDS011;15200;50.570;7.244;2023-07-29T04:49:52;3.62;;;1.22;;
27833;SDS011;15200;50.570;7.244;2023-07-29T04:52:20;5.85;;;1.80;;
27833;SDS011;15200;50.570;7.244;2023-07-29T04:54:48;4.30;;;1.72;;
27833;SDS011;15200;50.570;7.244;2023-07-29T04:57:15;3.08;;;1.50;;
27833;SDS011;15200;50.570;7.244;2023-07-29T04:59:43;4.72;;;1.47;;
27833;SDS011;15200;50.570;7.244;2023-07-29T05:02:10;1.65;;;1.40;;
27833;SDS011;15200;50.570;7.244;2023-07-29T05:04:37;3.30;;;1.32;;
27833;SDS011;15200;50.570;7.244;2023-07-29T05:07:05;5.83;;;1.75;;
27833;SDS011;15200;50.570;7.244;2023-07-29T05:09:32;1.72;;;1.10;;
27833;SDS011;15200;50.570;7.244;2023-07-29T05:11:59;6.42;;;1.55;;
27833;SDS011;15200;50.570;7.244;2023-07-29T05:14:28;5.67;;;1.75;;
27833;SDS011;15200;50.570;7.244;2023-07-29T05:16:56;5.25;;;1.80;;
27833;SDS011;15200;50.570;7.244;2023-07-29T05:19:23;2.92;;;2.12;;
27833;SDS011;15200;50.570;7.244;2023-07-29T05:21:50;2.17;;;2.00;;
27833;SDS011;15200;50.570;7.244;2023-07-29T05:24:18;1.77;;;1.40;;
27833;SDS011;15200;50.570;7.244;2023-07-29T05:26:45;3.52;;;1.52;;
27833;SDS011;15200;50.570;7.244;2023-07-29T05:29:12;5.97;;;1.70;;
27833;SDS011;15200;50.570;7.244;2023-07-29T05:31:40;5.37;;;1.47;;
27833;SDS011;15200;50.570;7.244;2023-07-29T05:34:07;2.55;;;1.42;;
27833;SDS011;15200;50.570;7.244;2023-07-29T05:36:35;2.20;;;1.82;;
27833;SDS011;15200;50.570;7.244;2023-07-29T05:39:02;2.27;;;1.85;;
27833;SDS011;15200;50.570;7.244;2023-07-29T05:41:30;2.65;;;1.50;;
27833;SDS011;15200;50.570;7.244;2023-07-29T05:43:57;3.35;;;1.90;;
27833;SDS011;15200;50.570;7.244;2023-07-29T05:46:24;3.85;;;1.95;;
27833;SDS011;15200;50.570;7.244;2023-07-29T05:48:52;4.97;;;1.87;;
27833;SDS011;15200;50.570;7.244;2023-07-29T05:51:19;4.47;;;1.87;;
27833;SDS011;15200;50.570;7.244;2023-07-29T05:53:47;1.77;;;1.60;;
27833;SDS011;15200;50.570;7.244;2023-07-29T05:56:14;3.72;;;1.80;;
27833;SDS011;15200;50.570;7.244;2023-07-29T05:58:42;4.17;;;2.30;;
27833;SDS011;15200;50.570;7.244;2023-07-29T06:01:10;3.42;;;1.80;;
27833;SDS011;15200;50.570;7.244;2023-07-29T06:03:38;6.17;;;1.98;;
27833;SDS011;15200;50.570;7.244;2023-07-29T06:06:05;6.35;;;2.15;;
27833;SDS011;15200;50.570;7.244;2023-07-29T06:08:33;3.37;;;2.20;;
27833;SDS011;15200;50.570;7.244;2023-07-29T06:11:00;6.33;;;2.10;;
27833;SDS011;15200;50.570;7.244;2023-07-29T06:13:28;4.03;;;2.15;;
27833;SDS011;15200;50.570;7.244;2023-07-29T06:15:55;4.58;;;2.30;;
27833;SDS011;15200;50.570;7.244;2023-07-29T06:18:22;5.45;;;2.15;;
27833;SDS011;15200;50.570;7.244;2023-07-29T06:20:50;5.03;;;2.50;;
27833;SDS011;15200;50.570;7.244;2023-07-29T06:23:17;3.52;;;2.22;;
27833;SDS011;15200;50.570;7.244;2023-07-29T06:25:45;3.15;;;2.22;;
27833;SDS011;15200;50.570;7.244;2023-07-29T06:28:12;4.58;;;2.17;;
27833;SDS011;15200;50.570;7.244;2023-07-29T06:30:39;3.25;;;2.37;;
27833;SDS011;15200;50.570;7.244;2023-07-29T06:33:07;2.37;;;2.05;;
27833;SDS011;15200;50.570;7.244;2023-07-29T06:35:35;4.87;;;1.85;;
27833;SDS011;15200;50.570;7.244;2023-07-29T06:38:02;3.12;;;1.87;;
27833;SDS011;15200;50.570;7.244;2023-07-29T06:40:29;2.20;;;1.72;;
27833;SDS011;15200;50.570;7.244;2023-07-29T06:42:57;1.90;;;1.75;;
27833;SDS011;15200;50.570;7.244;2023-07-29T06:45:24;4.35;;;1.82;;
27833;SDS011;15200;50.570;7.244;2023-07-29T06:47:51;6.55;;;1.98;;
27833;SDS011;15200;50.570;7.244;2023-07-29T06:50:19;3.87;;;2.05;;
27833;SDS011;15200;50.570;7.244;2023-07-29T06:52:46;1.52;;;1.40;;
27833;SDS011;15200;50.570;7.244;2023-07-29T06:55:13;1.87;;;1.50;;
27833;SDS011;15200;50.570;7.244;2023-07-29T06:57:40;3.12;;;1.82;;
27833;SDS011;15200;50.570;7.244;2023-07-29T07:00:08;2.27;;;1.35;;
27833;SDS011;15200;50.570;7.244;2023-07-29T07:02:35;3.75;;;1.70;;
27833;SDS011;15200;50.570;7.244;2023-07-29T07:05:03;9.60;;;2.05;;
27833;SDS011;15200;50.570;7.244;2023-07-29T07:07:30;3.05;;;2.30;;
27833;SDS011;15200;50.570;7.244;2023-07-29T07:09:58;4.15;;;2.50;;
27833;SDS011;15200;50.570;7.244;2023-07-29T07:12:25;4.10;;;2.40;;
27833;SDS011;15200;50.570;7.244;2023-07-29T07:14:52;2.40;;;2.20;;
27833;SDS011;15200;50.570;7.244;2023-07-29T07:17:19;5.90;;;2.37;;
27833;SDS011;15200;50.570;7.244;2023-07-29T07:19:47;3.40;;;2.20;;
27833;SDS011;15200;50.570;7.244;2023-07-29T07:22:15;6.22;;;2.60;;
27833;SDS011;15200;50.570;7.244;2023-07-29T07:24:42;6.97;;;2.45;;
27833;SDS011;15200;50.570;7.244;2023-07-29T07:27:10;15.95;;;3.33;;
27833;SDS011;15200;50.570;7.244;2023-07-29T07:29:37;6.85;;;2.67;;
27833;SDS011;15200;50.570;7.244;2023-07-29T07:32:06;2.60;;;1.87;;
27833;SDS011;15200;50.570;7.244;2023-07-29T07:34:33;2.37;;;2.15;;
27833;SDS011;15200;50.570;7.244;2023-07-29T07:37:00;4.70;;;1.70;;
27833;SDS011;15200;50.570;7.244;2023-07-29T07:39:29;2.30;;;2.10;;
27833;SDS011;15200;50.570;7.244;2023-07-29T07:41:57;2.00;;;1.80;;
27833;SDS011;15200;50.570;7.244;2023-07-29T07:44:24;2.70;;;1.50;;
27833;SDS011;15200;50.570;7.244;2023-07-29T07:46:52;1.30;;;1.20;;
27833;SDS011;15200;50.570;7.244;2023-07-29T07:49:22;2.00;;;1.25;;
27833;SDS011;15200;50.570;7.244;2023-07-29T07:51:50;4.95;;;1.40;;
27833;SDS011;15200;50.570;7.244;2023-07-29T07:54:17;0.80;;;0.80;;
27833;SDS011;15200;50.570;7.244;2023-07-29T07:56:44;1.42;;;0.90;;
27833;SDS011;15200;50.570;7.244;2023-07-29T07:59:12;1.07;;;0.98;;
27833;SDS011;15200;50.570;7.244;2023-07-29T08:01:39;5.17;;;1.10;;
27833;SDS011;15200;50.570;7.244;2023-07-29T08:04:06;0.98;;;0.80;;
27833;SDS011;15200;50.570;7.244;2023-07-29T08:06:34;2.98;;;1.12;;
27833;SDS011;15200;50.570;7.244;2023-07-29T08:09:01;3.33;;;0.80;;
27833;SDS011;15200;50.570;7.244;2023-07-29T08:11:29;3.98;;;0.93;;
27833;SDS011;15200;50.570;7.244;2023-07-29T08:13:58;3.17;;;1.22;;
27833;SDS011;15200;50.570;7.244;2023-07-29T08:16:25;1.12;;;0.82;;
27833;SDS011;15200;50.570;7.244;2023-07-29T08:18:53;1.67;;;0.98;;
27833;SDS011;15200;50.570;7.244;2023-07-29T08:21:20;1.20;;;0.80;;
27833;SDS011;15200;50.570;7.244;2023-07-29T08:23:47;18.73;;;2.17;;
27833;SDS011;15200;50.570;7.244;2023-07-29T08:26:15;2.85;;;0.90;;
27833;SDS011;15200;50.570;7.244;2023-07-29T08:28:43;3.62;;;1.20;;
27833;SDS011;15200;50.570;7.244;2023-07-29T08:31:10;29.57;;;2.62;;
27833;SDS011;15200;50.570;7.244;2023-07-29T08:33:37;3.72;;;0.70;;
27833;SDS011;15200;50.570;7.244;2023-07-29T08:36:04;1.32;;;0.90;;
27833;SDS011;15200;50.570;7.244;2023-07-29T08:38:32;3.22;;;1.07;;
27833;SDS011;15200;50.570;7.244;2023-07-29T08:41:03;0.85;;;0.80;;
27833;SDS011;15200;50.570;7.244;2023-07-29T08:43:31;0.80;;;0.80;;
27833;SDS011;15200;50.570;7.244;2023-07-29T08:45:59;3.25;;;0.93;;
27833;SDS011;15200;50.570;7.244;2023-07-29T08:48:36;0.70;;;0.70;;
27833;SDS011;15200;50.570;7.244;2023-07-29T08:51:04;2.52;;;1.10;;
27833;SDS011;15200;50.570;7.244;2023-07-29T08:53:32;1.95;;;0.95;;
27833;SDS011;15200;50.570;7.244;2023-07-29T08:56:00;0.95;;;0.85;;
27833;SDS011;15200;50.570;7.244;2023-07-29T08:58:27;3.42;;;1.30;;
27833;SDS011;15200;50.570;7.244;2023-07-29T09:00:55;2.15;;;1.10;;
27833;SDS011;15200;50.570;7.244;2023-07-29T09:03:23;2.05;;;0.90;;
27833;SDS011;15200;50.570;7.244;2023-07-29T09:05:50;1.75;;;0.93;;
27833;SDS011;15200;50.570;7.244;2023-07-29T09:08:17;2.00;;;1.30;;
27833;SDS011;15200;50.570;7.244;2023-07-29T09:10:45;1.20;;;1.10;;
27833;SDS011;15200;50.570;7.244;2023-07-29T09:13:12;3.95;;;1.12;;
27833;SDS011;15200;50.570;7.244;2023-07-29T09:15:39;1.67;;;1.32;;
27833;SDS011;15200;50.570;7.244;2023-07-29T09:18:14;4.70;;;1.17;;
27833;SDS011;15200;50.570;7.244;2023-07-29T09:20:37;1.98;;;1.17;;
27833;SDS011;15200;50.570;7.244;2023-07-29T09:23:06;1.27;;;1.17;;
27833;SDS011;15200;50.570;7.244;2023-07-29T09:25:33;2.17;;;1.27;;
27833;SDS011;15200;50.570;7.244;2023-07-29T09:28:01;3.25;;;1.40;;
27833;SDS011;15200;50.570;7.244;2023-07-29T09:30:29;2.60;;;1.17;;
27833;SDS011;15200;50.570;7.244;2023-07-29T09:32:57;1.30;;;1.10;;
27833;SDS011;15200;50.570;7.244;2023-07-29T09:35:27;1.87;;;1.40;;
27833;SDS011;15200;50.570;7.244;2023-07-29T09:37:53;1.70;;;1.10;;
27833;SDS011;15200;50.570;7.244;2023-07-29T09:40:21;0.85;;;0.82;;
27833;SDS011;15200;50.570;7.244;2023-07-29T09:42:49;1.40;;;0.90;;
27833;SDS011;15200;50.570;7.244;2023-07-29T09:45:26;2.45;;;1.35;;
27833;SDS011;15200;50.570;7.244;2023-07-29T09:47:54;1.57;;;1.00;;
27833;SDS011;15200;50.570;7.244;2023-07-29T09:50:24;2.77;;;1.32;;
27833;SDS011;15200;50.570;7.244;2023-07-29T09:52:52;2.47;;;1.15;;
27833;SDS011;15200;50.570;7.244;2023-07-29T09:55:23;1.70;;;1.17;;
27833;SDS011;15200;50.570;7.244;2023-07-29T09:57:56;3.75;;;1.35;;
27833;SDS011;15200;50.570;7.244;2023-07-29T10:00:25;1.17;;;1.07;;
27833;SDS011;15200;50.570;7.244;2023-07-29T10:02:53;1.90;;;1.15;;
27833;SDS011;15200;50.570;7.244;2023-07-29T10:05:21;2.08;;;1.10;;
27833;SDS011;15200;50.570;7.244;2023-07-29T10:07:49;0.95;;;0.90;;
27833;SDS011;15200;50.570;7.244;2023-07-29T10:10:17;1.65;;;1.00;;
27833;SDS011;15200;50.570;7.244;2023-07-29T10:12:45;1.40;;;1.20;;
27833;SDS011;15200;50.570;7.244;2023-07-29T10:15:12;1.67;;;0.90;;
27833;SDS011;15200;50.570;7.244;2023-07-29T10:17:41;0.95;;;0.93;;
27833;SDS011;15200;50.570;7.244;2023-07-29T10:20:09;1.65;;;0.90;;
27833;SDS011;15200;50.570;7.244;2023-07-29T10:22:41;1.27;;;1.10;;
27833;SDS011;15200;50.570;7.244;2023-07-29T10:25:10;2.95;;;1.05;;
27833;SDS011;15200;50.570;7.244;2023-07-29T10:27:56;1.70;;;1.00;;
27833;SDS011;15200;50.570;7.244;2023-07-29T10:30:18;1.32;;;0.90;;
27833;SDS011;15200;50.570;7.244;2023-07-29T10:32:45;1.90;;;1.30;;
27833;SDS011;15200;50.570;7.244;2023-07-29T10:35:13;2.17;;;1.10;;
27833;SDS011;15200;50.570;7.244;2023-07-29T10:37:41;2.05;;;1.12;;
27833;SDS011;15200;50.570;7.244;2023-07-29T10:40:09;3.50;;;1.05;;
27833;SDS011;15200;50.570;7.244;2023-07-29T10:42:37;2.80;;;1.00;;
27833;SDS011;15200;50.570;7.244;2023-07-29T10:45:17;2.30;;;0.98;;
27833;SDS011;15200;50.570;7.244;2023-07-29T10:47:44;1.70;;;1.10;;
27833;SDS011;15200;50.570;7.244;2023-07-29T10:50:19;0.90;;;0.90;;
27833;SDS011;15200;50.570;7.244;2023-07-29T10:52:51;3.05;;;1.10;;
27833;SDS011;15200;50.570;7.244;2023-07-29T10:55:35;1.65;;;1.20;;
27833;SDS011;15200;50.570;7.244;2023-07-29T10:58:06;1.35;;;1.07;;
27833;SDS011;15200;50.570;7.244;2023-07-29T11:00:33;1.20;;;0.95;;
27833;SDS011;15200;50.570;7.244;2023-07-29T11:03:02;2.42;;;1.07;;
27833;SDS011;15200;50.570;7.244;2023-07-29T11:05:42;2.08;;;1.30;;
27833;SDS011;15200;50.570;7.244;2023-07-29T11:13:28;1.30;;;1.20;;
27833;SDS011;15200;50.570;7.244;2023-07-29T11:15:58;2.05;;;1.10;;
27833;SDS011;15200;50.570;7.244;2023-07-29T11:18:29;1.95;;;1.10;;
27833;SDS011;15200;50.570;7.244;2023-07-29T11:20:56;2.10;;;1.40;;
27833;SDS011;15200;50.570;7.244;2023-07-29T11:23:30;1.42;;;1.20;;
27833;SDS011;15200;50.570;7.244;2023-07-29T11:25:57;3.77;;;1.10;;
27833;SDS011;15200;50.570;7.244;2023-07-29T11:28:25;0.90;;;0.90;;
27833;SDS011;15200;50.570;7.244;2023-07-29T11:30:53;1.98;;;1.17;;
27833;SDS011;15200;50.570;7.244;2023-07-29T11:33:21;1.85;;;1.50;;
27833;SDS011;15200;50.570;7.244;2023-07-29T11:35:49;2.52;;;1.40;;
27833;SDS011;15200;50.570;7.244;2023-07-29T11:38:17;1.20;;;1.10;;
27833;SDS011;15200;50.570;7.244;2023-07-29T11:40:54;2.05;;;1.42;;
27833;SDS011;15200;50.570;7.244;2023-07-29T11:43:17;3.87;;;1.20;;
27833;SDS011;15200;50.570;7.244;2023-07-29T11:45:42;1.30;;;1.17;;
27833;SDS011;15200;50.570;7.244;2023-07-29T11:48:09;1.70;;;1.05;;
27833;SDS011;15200;50.570;7.244;2023-07-29T11:50:36;2.77;;;1.10;;
27833;SDS011;15200;50.570;7.244;2023-07-29T11:53:04;0.75;;;0.72;;
27833;SDS011;15200;50.570;7.244;2023-07-29T11:55:32;1.20;;;1.00;;
27833;SDS011;15200;50.570;7.244;2023-07-29T11:58:01;1.10;;;1.00;;
27833;SDS011;15200;50.570;7.244;2023-07-29T12:00:29;1.80;;;0.85;;
27833;SDS011;15200;50.570;7.244;2023-07-29T12:02:56;1.00;;;0.80;;
27833;SDS011;15200;50.570;7.244;2023-07-29T12:05:24;1.37;;;0.80;;
27833;SDS011;15200;50.570;7.244;2023-07-29T12:07:52;1.10;;;0.98;;
27833;SDS011;15200;50.570;7.244;2023-07-29T12:10:19;1.25;;;0.80;;
27833;SDS011;15200;50.570;7.244;2023-07-29T12:12:48;1.00;;;0.60;;
27833;SDS011;15200;50.570;7.244;2023-07-29T12:15:22;1.42;;;1.00;;
27833;SDS011;15200;50.570;7.244;2023-07-29T12:17:52;0.85;;;0.72;;
27833;SDS011;15200;50.570;7.244;2023-07-29T12:20:20;1.02;;;0.75;;
27833;SDS011;15200;50.570;7.244;2023-07-29T12:22:52;0.82;;;0.62;;
27833;SDS011;15200;50.570;7.244;2023-07-29T12:25:19;1.37;;;0.60;;
27833;SDS011;15200;50.570;7.244;2023-07-29T12:27:47;1.20;;;0.65;;
27833;SDS011;15200;50.570;7.244;2023-07-29T12:30:14;1.20;;;0.80;;
27833;SDS011;15200;50.570;7.244;2023-07-29T12:32:47;1.98;;;0.55;;
27833;SDS011;15200;50.570;7.244;2023-07-29T12:35:12;0.98;;;0.70;;
27833;SDS011;15200;50.570;7.244;2023-07-29T12:37:40;1.15;;;0.82;;
27833;SDS011;15200;50.570;7.244;2023-07-29T12:40:22;0.80;;;0.80;;
27833;SDS011;15200;50.570;7.244;2023-07-29T12:42:50;0.70;;;0.55;;
27833;SDS011;15200;50.570;7.244;2023-07-29T12:45:18;0.68;;;0.68;;
27833;SDS011;15200;50.570;7.244;2023-07-29T12:47:46;0.98;;;0.80;;
27833;SDS011;15200;50.570;7.244;2023-07-29T12:50:13;0.82;;;0.60;;
27833;SDS011;15200;50.570;7.244;2023-07-29T12:52:40;1.45;;;0.82;;
27833;SDS011;15200;50.570;7.244;2023-07-29T12:55:08;0.82;;;0.80;;
27833;SDS011;15200;50.570;7.244;2023-07-29T12:57:37;2.83;;;0.85;;
27833;SDS011;15200;50.570;7.244;2023-07-29T13:00:04;0.82;;;0.80;;
27833;SDS011;15200;50.570;7.244;2023-07-29T13:02:32;3.72;;;0.60;;
27833;SDS011;15200;50.570;7.244;2023-07-29T13:04:59;0.53;;;0.53;;
27833;SDS011;15200;50.570;7.244;2023-07-29T13:07:26;0.75;;;0.60;;
27833;SDS011;15200;50.570;7.244;2023-07-29T13:09:53;1.00;;;0.90;;
27833;SDS011;15200;50.570;7.244;2023-07-29T13:12:21;0.98;;;0.60;;
27833;SDS011;15200;50.570;7.244;2023-07-29T13:14:48;1.40;;;0.80;;
27833;SDS011;15200;50.570;7.244;2023-07-29T13:17:15;2.90;;;0.88;;
27833;SDS011;15200;50.570;7.244;2023-07-29T13:19:43;0.78;;;0.78;;
27833;SDS011;15200;50.570;7.244;2023-07-29T13:22:10;0.68;;;0.60;;
27833;SDS011;15200;50.570;7.244;2023-07-29T13:24:37;1.00;;;0.70;;
27833;SDS011;15200;50.570;7.244;2023-07-29T13:27:05;1.05;;;0.70;;
27833;SDS011;15200;50.570;7.244;2023-07-29T13:29:32;1.05;;;0.98;;
27833;SDS011;15200;50.570;7.244;2023-07-29T13:31:59;0.70;;;0.70;;
27833;SDS011;15200;50.570;7.244;2023-07-29T13:34:27;2.12;;;0.80;;
27833;SDS011;15200;50.570;7.244;2023-07-29T13:36:54;2.55;;;0.90;;
27833;SDS011;15200;50.570;7.244;2023-07-29T13:39:21;3.75;;;0.90;;
27833;SDS011;15200;50.570;7.244;2023-07-29T13:41:49;0.98;;;0.95;;
27833;SDS011;15200;50.570;7.244;2023-07-29T13:44:16;1.05;;;0.93;;
27833;SDS011;15200;50.570;7.244;2023-07-29T13:46:43;0.80;;;0.80;;
27833;SDS011;15200;50.570;7.244;2023-07-29T13:49:10;4.70;;;1.07;;
27833;SDS011;15200;50.570;7.244;2023-07-29T13:51:38;1.02;;;0.98;;
27833;SDS011;15200;50.570;7.244;2023-07-29T13:54:05;1.00;;;0.90;;
27833;SDS011;15200;50.570;7.244;2023-07-29T13:56:32;5.12;;;1.45;;
27833;SDS011;15200;50.570;7.244;2023-07-29T13:59:00;1.27;;;1.17;;
27833;SDS011;15200;50.570;7.244;2023-07-29T14:01:27;0.88;;;0.75;;
27833;SDS011;15200;50.570;7.244;2023-07-29T14:03:54;1.20;;;1.10;;
27833;SDS011;15200;50.570;7.244;2023-07-29T14:06:22;2.87;;;0.90;;
27833;SDS011;15200;50.570;7.244;2023-07-29T14:08:49;1.27;;;1.10;;
27833;SDS011;15200;50.570;7.244;2023-07-29T14:11:16;1.22;;;0.95;;
27833;SDS011;15200;50.570;7.244;2023-07-29T14:13:43;2.58;;;1.10;;
27833;SDS011;15200;50.570;7.244;2023-07-29T14:16:11;2.47;;;1.02;;
27833;SDS011;15200;50.570;7.244;2023-07-29T14:18:38;1.12;;;1.02;;
27833;SDS011;15200;50.570;7.244;2023-07-29T14:21:05;1.27;;;1.10;;
27833;SDS011;15200;50.570;7.244;2023-07-29T14:23:33;1.20;;;1.10;;
27833;SDS011;15200;50.570;7.244;2023-07-29T14:26:00;1.30;;;1.00;;
27833;SDS011;15200;50.570;7.244;2023-07-29T14:28:27;1.22;;;1.12;;
27833;SDS011;15200;50.570;7.244;2023-07-29T14:30:56;2.67;;;1.07;;
27833;SDS011;15200;50.570;7.244;2023-07-29T14:33:24;0.90;;;0.85;;
27833;SDS011;15200;50.570;7.244;2023-07-29T14:35:52;1.17;;;1.00;;
27833;SDS011;15200;50.570;7.244;2023-07-29T14:38:19;1.17;;;0.98;;
27833;SDS011;15200;50.570;7.244;2023-07-29T14:40:47;3.40;;;0.80;;
27833;SDS011;15200;50.570;7.244;2023-07-29T14:43:16;1.00;;;0.80;;
27833;SDS011;15200;50.570;7.244;2023-07-29T14:45:43;1.95;;;0.90;;
27833;SDS011;15200;50.570;7.244;2023-07-29T14:48:11;1.37;;;0.90;;
27833;SDS011;15200;50.570;7.244;2023-07-29T14:50:38;1.05;;;0.93;;
27833;SDS011;15200;50.570;7.244;2023-07-29T14:53:05;0.70;;;0.70;;
27833;SDS011;15200;50.570;7.244;2023-07-29T14:55:33;0.85;;;0.85;;
27833;SDS011;15200;50.570;7.244;2023-07-29T14:58:00;1.07;;;0.80;;